createdAt,value
2023-02-06T00:01:23.896Z,96073.06
2023-02-06T00:03:52.046Z,96061.50
2023-02-06T00:06:21.210Z,96084.44
2023-02-06T00:08:50.786Z,96081.16
2023-02-06T00:11:18.715Z,96082.78
2023-02-06T00:13:47.244Z,96088.06
2023-02-06T00:16:19.438Z,96081.63
2023-02-06T00:18:50.559Z,96090.09
2023-02-06T00:21:20.334Z,96088.06
2023-02-06T00:23:48.556Z,96095.34
2023-02-06T00:26:18.509Z,96097.41
2023-02-06T00:28:46.839Z,96095.19
2023-02-06T00:31:16.118Z,96097.25
2023-02-06T00:33:44.053Z,96092.56
2023-02-06T00:36:12.008Z,96096.81
2023-02-06T00:38:40.236Z,96094.97
2023-02-06T00:41:08.363Z,96104.09
2023-02-06T00:43:37.753Z,96106.31
2023-02-06T00:46:05.933Z,96106.69
2023-02-06T00:48:33.850Z,96116.41
2023-02-06T00:51:01.789Z,96108.88
2023-02-06T00:53:29.699Z,96108.59
2023-02-06T00:55:57.606Z,96109.41
2023-02-06T00:58:25.439Z,96117.31
2023-02-06T01:00:55.241Z,96066.09
2023-02-06T01:03:23.087Z,96096.84
2023-02-06T01:05:51.072Z,96122.84
2023-02-06T01:08:18.945Z,96126.53
2023-02-06T01:10:46.960Z,96125.06
2023-02-06T01:13:15.348Z,96113.44
2023-02-06T01:15:43.396Z,96101.94
2023-02-06T01:18:14.060Z,96135.44
2023-02-06T01:20:42.278Z,96129.38
2023-02-06T01:23:10.601Z,96054.09
2023-02-06T01:25:38.641Z,96137.97
2023-02-06T01:28:06.560Z,96132.53
2023-02-06T01:30:34.594Z,96140.75
2023-02-06T01:33:02.494Z,96147.09
2023-02-06T01:35:31.809Z,96138.34
2023-02-06T01:37:59.673Z,96116.75
2023-02-06T01:40:27.602Z,96133.94
2023-02-06T01:42:55.474Z,96141.66
2023-02-06T01:45:44.435Z,96142.31
2023-02-06T01:48:16.278Z,96149.78
2023-02-06T01:50:49.104Z,96151.03
2023-02-06T01:53:19.012Z,96096.50
2023-02-06T01:55:49.093Z,96146.19
2023-02-06T01:58:20.510Z,96160.31
2023-02-06T02:00:49.798Z,96150.94
2023-02-06T02:03:17.849Z,96150.47
2023-02-06T02:05:48.607Z,96151.69
2023-02-06T02:08:21.276Z,96146.06
2023-02-06T02:10:49.574Z,96130.31
2023-02-06T02:13:17.480Z,96155.22
2023-02-06T02:15:59.943Z,96147.81
2023-02-06T02:18:42.481Z,96152.28
2023-02-06T02:21:52.049Z,96095.34
2023-02-06T02:24:26.555Z,96142.47
2023-02-06T02:27:23.181Z,96154.31
2023-02-06T02:30:25.714Z,96161.22
2023-02-06T02:33:38.033Z,96143.78
2023-02-06T02:36:15.092Z,96156.63
2023-02-06T02:38:55.256Z,96167.91
2023-02-06T02:41:31.461Z,96171.84
2023-02-06T02:44:05.708Z,96164.53
2023-02-06T02:46:37.671Z,96162.34
2023-02-06T02:49:10.392Z,96169.81
2023-02-06T02:51:41.969Z,96121.75
2023-02-06T02:54:10.531Z,96170.69
2023-02-06T02:56:38.747Z,96175.28
2023-02-06T02:59:11.908Z,96175.88
2023-02-06T03:01:46.795Z,96174.47
2023-02-06T03:04:19.196Z,96187.53
2023-02-06T03:07:01.809Z,96120.91
2023-02-06T03:09:41.048Z,96185.06
2023-02-06T03:12:21.170Z,96190.44
2023-02-06T03:14:55.848Z,96182.41
2023-02-06T03:17:31.168Z,96193.38
2023-02-06T03:20:02.362Z,96123.88
2023-02-06T03:22:33.193Z,96188.03
2023-02-06T03:25:03.721Z,96185.56
2023-02-06T03:27:32.405Z,96189.41
2023-02-06T03:30:04.069Z,96190.75
2023-02-06T03:32:35.629Z,96185.69
2023-02-06T03:35:08.510Z,96189.78
2023-02-06T03:37:39.345Z,96191.50
2023-02-06T03:40:09.426Z,96194.38
2023-02-06T03:42:43.344Z,96191.16
2023-02-06T03:45:16.938Z,96114.34
2023-02-06T03:47:48.224Z,96187.16
2023-02-06T03:50:17.109Z,96197.25
2023-02-06T03:52:50.577Z,96190.28
2023-02-06T03:55:21.240Z,96190.28
2023-02-06T03:57:53.943Z,96197.66
2023-02-06T04:00:22.185Z,96191.66
2023-02-06T04:02:52.817Z,96184.63
2023-02-06T04:05:21.366Z,96185.28
2023-02-06T04:07:52.643Z,96189.66
2023-02-06T04:10:20.784Z,96156.22
2023-02-06T04:12:48.735Z,96182.88
2023-02-06T04:15:16.980Z,96131.47
2023-02-06T04:17:58.678Z,96193.91
2023-02-06T04:20:28.235Z,96203.47
2023-02-06T04:22:57.774Z,96208.31
2023-02-06T04:25:26.097Z,96182.25
2023-02-06T04:27:54.021Z,96198.19
2023-02-06T04:30:22.257Z,96211.53
2023-02-06T04:32:50.144Z,96215.22
2023-02-06T04:35:18.394Z,96218.47
2023-02-06T04:37:46.275Z,96190.63
2023-02-06T04:40:15.558Z,96214.16
2023-02-06T04:42:43.443Z,96215.19
2023-02-06T04:45:11.413Z,96220.81
2023-02-06T04:47:39.383Z,96216.38
2023-02-06T04:50:08.309Z,96215.31
2023-02-06T04:52:38.586Z,96213.16
2023-02-06T04:55:06.934Z,96213.94
2023-02-06T04:57:36.261Z,96222.50
2023-02-06T05:00:05.159Z,96211.97
2023-02-06T05:02:37.489Z,96219.41
2023-02-06T05:05:05.831Z,96197.31
2023-02-06T05:07:33.644Z,96228.69
2023-02-06T05:10:01.669Z,96226.72
2023-02-06T05:12:30.072Z,96252.22
2023-02-06T05:14:59.448Z,96234.03
2023-02-06T05:17:27.455Z,96218.97
2023-02-06T05:19:58.297Z,96221.63
2023-02-06T05:22:27.083Z,96247.81
2023-02-06T05:24:55.147Z,96210.19
2023-02-06T05:27:23.178Z,96247.91
2023-02-06T05:29:51.176Z,96254.38
2023-02-06T05:32:20.627Z,96259.84
2023-02-06T05:34:48.511Z,96248.53
2023-02-06T05:37:16.438Z,96265.66
2023-02-06T05:39:44.346Z,96266.84
2023-02-06T05:42:12.274Z,96263.63
2023-02-06T05:44:40.178Z,96279.41
2023-02-06T05:47:08.092Z,96270.06
2023-02-06T05:49:39.573Z,96268.84
2023-02-06T05:52:07.531Z,96246.28
2023-02-06T05:54:35.401Z,96277.31
2023-02-06T05:57:04.232Z,96233.75
2023-02-06T05:59:32.466Z,96278.69
2023-02-06T06:02:00.527Z,96283.31
2023-02-06T06:04:28.650Z,96275.84
2023-02-06T06:06:57.996Z,96239.31
2023-02-06T06:09:26.015Z,96271.09
2023-02-06T06:11:54.025Z,96290.44
2023-02-06T06:14:21.921Z,96282.78
2023-02-06T06:16:49.838Z,96306.00
2023-02-06T06:19:17.674Z,96277.28
2023-02-06T06:21:45.715Z,96294.41
2023-02-06T06:24:15.048Z,96279.91
2023-02-06T06:26:43.223Z,96278.34
2023-02-06T06:29:11.100Z,96286.34
2023-02-06T06:31:39.200Z,96278.00
2023-02-06T06:34:07.193Z,96300.78
2023-02-06T06:36:35.176Z,96289.38
2023-02-06T06:39:04.677Z,96295.38
2023-02-06T06:41:33.924Z,96294.63
2023-02-06T06:44:02.119Z,96245.94
2023-02-06T06:46:30.163Z,96296.69
2023-02-06T06:48:58.098Z,96278.69
2023-02-06T06:51:26.826Z,96309.69
2023-02-06T06:53:54.897Z,96272.41
2023-02-06T06:56:22.838Z,96318.88
2023-02-06T06:58:52.111Z,96321.50
2023-02-06T07:01:20.900Z,96319.75
2023-02-06T07:03:49.106Z,96321.47
2023-02-06T07:06:17.922Z,96315.59
2023-02-06T07:08:45.841Z,96326.31
2023-02-06T07:11:15.653Z,96328.47
2023-02-06T07:13:44.289Z,96332.66
2023-02-06T07:16:13.909Z,96321.00
2023-02-06T07:18:43.046Z,96335.28
2023-02-06T07:21:13.765Z,96286.88
2023-02-06T07:23:41.707Z,96348.75
2023-02-06T07:26:10.697Z,96329.47
2023-02-06T07:28:38.707Z,96349.03
2023-02-06T07:31:10.025Z,96341.34
2023-02-06T07:33:39.409Z,96336.59
2023-02-06T07:36:11.957Z,96345.22
2023-02-06T07:38:40.146Z,96343.13
2023-02-06T07:41:09.465Z,96344.56
2023-02-06T07:43:39.562Z,96356.63
2023-02-06T07:46:07.566Z,96351.88
2023-02-06T07:48:35.775Z,96354.78
2023-02-06T07:51:09.651Z,96322.38
2023-02-06T07:53:38.835Z,96349.75
2023-02-06T07:56:12.134Z,96358.13
2023-02-06T07:58:40.721Z,96354.09
2023-02-06T08:01:09.245Z,96363.72
2023-02-06T08:03:38.769Z,96359.44
2023-02-06T08:06:12.484Z,96358.38
2023-02-06T08:08:40.595Z,96307.69
2023-02-06T08:11:09.793Z,96355.31
2023-02-06T08:13:37.812Z,96350.53
2023-02-06T08:16:08.125Z,96358.00
2023-02-06T08:18:37.382Z,96343.59
2023-02-06T08:21:07.146Z,96336.28
2023-02-06T08:23:36.632Z,96350.50
2023-02-06T08:26:06.290Z,96356.09
2023-02-06T08:28:35.197Z,96365.91
2023-02-06T08:31:11.154Z,96363.84
2023-02-06T08:33:39.470Z,96310.66
2023-02-06T08:36:08.658Z,96361.09
2023-02-06T08:38:38.374Z,96344.50
2023-02-06T08:41:07.219Z,96364.13
2023-02-06T08:43:35.026Z,96380.25
2023-02-06T08:46:02.945Z,96343.50
2023-02-06T08:48:30.910Z,96367.81
2023-02-06T08:51:06.607Z,96381.81
2023-02-06T08:53:34.608Z,96361.56
2023-02-06T08:56:06.824Z,96317.00
2023-02-06T08:58:35.357Z,96376.78
2023-02-06T09:01:07.909Z,96382.91
2023-02-06T09:03:36.137Z,96375.19
2023-02-06T09:06:10.359Z,96384.13
2023-02-06T09:08:39.126Z,96381.09
2023-02-06T09:11:10.474Z,96355.56
2023-02-06T09:13:39.456Z,96385.25
2023-02-06T09:16:08.420Z,96387.06
2023-02-06T09:18:36.660Z,96334.28
2023-02-06T09:21:10.223Z,96385.00
2023-02-06T09:23:38.928Z,96380.09
2023-02-06T09:26:08.392Z,96383.28
2023-02-06T09:28:36.344Z,96397.41
2023-02-06T09:31:04.661Z,96385.91
2023-02-06T09:33:32.735Z,96392.03
2023-02-06T09:36:05.438Z,96381.31
2023-02-06T09:38:33.778Z,96375.44
2023-02-06T09:41:05.273Z,96357.25
2023-02-06T09:43:35.802Z,96231.50
2023-02-06T09:46:07.834Z,96300.78
2023-02-06T09:48:39.524Z,96362.97
2023-02-06T09:51:17.163Z,96300.13
2023-02-06T09:53:59.065Z,96357.78
2023-02-06T09:56:33.295Z,96336.44
2023-02-06T09:59:10.622Z,96364.16
2023-02-06T10:01:45.068Z,96327.09
2023-02-06T10:04:34.089Z,96352.72
2023-02-06T10:07:15.903Z,96347.38
2023-02-06T10:09:48.471Z,96341.75
2023-02-06T10:12:20.854Z,96344.72
2023-02-06T10:14:54.477Z,96336.41
2023-02-06T10:17:26.262Z,96286.78
2023-02-06T10:20:00.454Z,96329.06
2023-02-06T10:22:34.311Z,96251.84
2023-02-06T10:25:17.882Z,96327.22
2023-02-06T10:27:48.923Z,96332.53
2023-02-06T10:30:21.101Z,96328.41
2023-02-06T10:32:57.427Z,96321.81
2023-02-06T10:35:45.683Z,96307.91
2023-02-06T10:38:43.369Z,96317.50
2023-02-06T10:41:21.201Z,96307.34
2023-02-06T10:43:54.721Z,96312.03
2023-02-06T10:46:48.348Z,96326.16
2023-02-06T10:49:25.852Z,96308.16
2023-02-06T10:51:56.941Z,96311.84
2023-02-06T10:54:30.340Z,96312.31
2023-02-06T10:57:01.745Z,96302.28
2023-02-06T10:59:33.785Z,96311.69
2023-02-06T11:02:26.476Z,96312.13
2023-02-06T11:05:00.686Z,96248.69
2023-02-06T11:07:32.338Z,96248.28
2023-02-06T11:10:01.922Z,96314.97
2023-02-06T11:12:34.822Z,96326.69
2023-02-06T11:15:07.889Z,96312.88
2023-02-06T11:17:37.349Z,96127.16
2023-02-06T11:20:21.895Z,96302.84
2023-02-06T11:22:53.179Z,96310.13
2023-02-06T11:25:26.831Z,96279.31
2023-02-06T11:27:55.590Z,96318.91
2023-02-06T11:30:32.144Z,96310.22
2023-02-06T11:33:05.893Z,96314.16
2023-02-06T11:35:39.731Z,96302.81
2023-02-06T11:38:17.038Z,96299.28
2023-02-06T11:40:54.727Z,96292.25
2023-02-06T11:43:24.557Z,96293.63
2023-02-06T11:46:07.468Z,96300.34
2023-02-06T11:48:40.248Z,96305.41
2023-02-06T11:51:10.405Z,96292.53
2023-02-06T11:53:39.230Z,96285.53
2023-02-06T11:56:17.620Z,96283.38
2023-02-06T11:58:46.423Z,96285.06
2023-02-06T12:01:23.391Z,96285.84
2023-02-06T12:03:59.338Z,96290.94
2023-02-06T12:06:34.070Z,96292.19
2023-02-06T12:09:04.107Z,96295.47
2023-02-06T12:11:37.852Z,96281.09
2023-02-06T12:14:11.211Z,96291.91
2023-02-06T12:16:43.007Z,96293.13
2023-02-06T12:19:18.543Z,96281.41
2023-02-06T12:21:50.244Z,96264.81
2023-02-06T12:24:28.690Z,96276.16
2023-02-06T12:27:00.898Z,96297.28
2023-02-06T12:29:35.153Z,96286.47
2023-02-06T12:32:09.961Z,96293.59
2023-02-06T12:34:50.301Z,96293.75
2023-02-06T12:37:21.856Z,96286.06
2023-02-06T12:39:52.503Z,96246.13
2023-02-06T12:42:36.288Z,96287.88
2023-02-06T12:45:12.311Z,96294.19
2023-02-06T12:47:47.254Z,96256.91
2023-02-06T12:50:22.916Z,96309.28
2023-02-06T12:52:54.955Z,96310.56
2023-02-06T12:55:28.228Z,96300.50
2023-02-06T12:57:57.764Z,96309.56
2023-02-06T13:00:50.833Z,96318.47
2023-02-06T13:03:34.585Z,96316.94
2023-02-06T13:06:14.057Z,96317.78
2023-02-06T13:08:47.538Z,96303.69
2023-02-06T13:11:27.736Z,96322.28
2023-02-06T13:14:05.988Z,96325.69
2023-02-06T13:16:51.908Z,96334.09
2023-02-06T13:20:03.903Z,96337.28
2023-02-06T13:22:49.511Z,96340.06
2023-02-06T13:25:55.516Z,96348.00
2023-02-06T13:29:09.677Z,96351.09
2023-02-06T13:31:38.651Z,96349.25
2023-02-06T13:34:17.476Z,96320.63
2023-02-06T13:36:52.059Z,96348.31
2023-02-06T13:39:30.637Z,96335.25
2023-02-06T13:42:04.605Z,96357.63
2023-02-06T13:44:37.592Z,96340.22
2023-02-06T13:47:26.738Z,96350.88
2023-02-06T13:50:37.702Z,96349.41
2023-02-06T13:53:21.470Z,96352.81
2023-02-06T13:56:03.517Z,96361.50
2023-02-06T13:58:45.633Z,96368.00
2023-02-06T14:01:16.989Z,96326.66
2023-02-06T14:03:48.329Z,96335.19
2023-02-06T14:06:31.251Z,96361.56
2023-02-06T14:09:10.433Z,96266.66
2023-02-06T14:12:13.107Z,96370.47
2023-02-06T14:14:59.794Z,96369.78
2023-02-06T14:17:41.126Z,96376.22
2023-02-06T14:20:21.807Z,96375.28
2023-02-06T14:23:00.111Z,96379.91
2023-02-06T14:25:43.712Z,96381.72
2023-02-06T14:28:43.372Z,96386.88
2023-02-06T14:31:22.685Z,96382.16
2023-02-06T14:34:05.255Z,96393.78
2023-02-06T14:36:50.882Z,96390.75
2023-02-06T14:40:04.392Z,96395.00
2023-02-06T14:42:38.482Z,96395.00
2023-02-06T14:45:10.119Z,96403.41
2023-02-06T14:47:42.800Z,96400.88
2023-02-06T14:50:19.938Z,96397.75
2023-02-06T14:52:52.769Z,96399.91
2023-02-06T14:55:31.721Z,96401.88
2023-02-06T14:58:00.258Z,96405.00
2023-02-06T15:00:30.336Z,96407.13
2023-02-06T15:03:06.673Z,96372.13
2023-02-06T15:05:35.640Z,96380.91
2023-02-06T15:08:06.673Z,96412.78
2023-02-06T15:10:37.619Z,96410.13
2023-02-06T15:13:06.135Z,96407.63
2023-02-06T15:15:36.600Z,96411.09
2023-02-06T15:18:06.966Z,96407.63
2023-02-06T15:20:40.255Z,96413.22
2023-02-06T15:23:18.101Z,96415.03
2023-02-06T15:26:06.508Z,96418.59
2023-02-06T15:28:38.056Z,96358.03
2023-02-06T15:31:18.335Z,96411.47
2023-02-06T15:33:49.837Z,96264.72
2023-02-06T15:36:26.247Z,96444.41
2023-02-06T15:38:57.909Z,96438.53
2023-02-06T15:41:28.725Z,96444.09
2023-02-06T15:44:07.770Z,96382.16
2023-02-06T15:46:39.090Z,96453.56
2023-02-06T15:49:11.060Z,96452.59
2023-02-06T15:51:50.121Z,96461.13
2023-02-06T15:54:21.139Z,96398.56
2023-02-06T15:56:52.105Z,96337.94
2023-02-06T15:59:24.199Z,96473.00
2023-02-06T16:01:56.615Z,96467.25
2023-02-06T16:04:29.314Z,96478.09
2023-02-06T16:07:05.341Z,96479.78
2023-02-06T16:09:41.643Z,96466.72
2023-02-06T16:12:10.698Z,96480.00
2023-02-06T16:14:41.746Z,96498.63
2023-02-06T16:17:26.564Z,96488.38
2023-02-06T16:19:56.639Z,96492.28
2023-02-06T16:22:28.492Z,96474.41
2023-02-06T16:25:14.235Z,96503.44
2023-02-06T16:27:45.711Z,96504.88
2023-02-06T16:30:22.735Z,96514.69
2023-02-06T16:32:55.375Z,96496.38
2023-02-06T16:35:24.103Z,96518.75
2023-02-06T16:37:54.294Z,96512.31
2023-02-06T16:40:22.573Z,96516.94
2023-02-06T16:42:52.095Z,96520.22
2023-02-06T16:45:23.373Z,96502.00
2023-02-06T16:47:53.284Z,96526.06
2023-02-06T16:50:22.394Z,96509.78
2023-02-06T16:52:52.841Z,96535.44
2023-02-06T16:55:23.605Z,96530.94
2023-02-06T16:57:54.344Z,96540.31
2023-02-06T17:00:24.487Z,96531.16
2023-02-06T17:02:54.716Z,96541.72
2023-02-06T17:05:24.682Z,96454.69
2023-02-06T17:07:54.203Z,96547.81
2023-02-06T17:10:24.912Z,96532.06
2023-02-06T17:12:53.438Z,96552.91
2023-02-06T17:15:21.856Z,96523.00
2023-02-06T17:17:49.777Z,96564.69
2023-02-06T17:20:29.404Z,96559.00
2023-02-06T17:22:57.336Z,96509.38
2023-02-06T17:25:25.551Z,96571.66
2023-02-06T17:27:53.944Z,96492.03
2023-02-06T17:30:24.186Z,96589.13
2023-02-06T17:32:52.362Z,96580.81
2023-02-06T17:35:22.002Z,96580.22
2023-02-06T17:37:51.479Z,96565.31
2023-02-06T17:40:24.509Z,96560.25
2023-02-06T17:42:52.734Z,96582.91
2023-02-06T17:45:21.060Z,96586.75
2023-02-06T17:47:49.224Z,96494.78
2023-02-06T17:50:19.685Z,96584.53
2023-02-06T17:52:49.215Z,96583.47
2023-02-06T17:55:17.887Z,96376.69
2023-02-06T17:57:46.098Z,96583.28
2023-02-06T18:00:20.458Z,96589.97
2023-02-06T18:02:48.369Z,96594.47
2023-02-06T18:05:16.477Z,96523.91
2023-02-06T18:07:44.820Z,96596.53
2023-02-06T18:10:14.224Z,96597.75
2023-02-06T18:12:42.431Z,96591.47
2023-02-06T18:15:13.726Z,96593.50
2023-02-06T18:17:43.012Z,96574.09
2023-02-06T18:20:14.069Z,96580.16
2023-02-06T18:22:42.134Z,96590.44
2023-02-06T18:25:12.014Z,96589.81
2023-02-06T18:27:42.875Z,96586.97
2023-02-06T18:30:12.361Z,96572.25
2023-02-06T18:32:41.678Z,96597.16
2023-02-06T18:35:10.422Z,96577.31
2023-02-06T18:37:39.041Z,96598.03
2023-02-06T18:40:07.876Z,96538.31
2023-02-06T18:42:54.577Z,96598.28
2023-02-06T18:45:26.586Z,96598.13
2023-02-06T18:47:55.671Z,96599.34
2023-02-06T18:50:24.571Z,96598.47
2023-02-06T18:52:52.844Z,96570.22
2023-02-06T18:55:21.477Z,96598.03
2023-02-06T18:57:49.891Z,96591.97
2023-02-06T19:00:20.252Z,96609.22
2023-02-06T19:02:50.150Z,96596.88
2023-02-06T19:05:19.265Z,96596.06
2023-02-06T19:07:50.677Z,96602.13
2023-02-06T19:10:19.490Z,96616.34
2023-02-06T19:12:47.988Z,96472.28
2023-02-06T19:15:16.763Z,96609.47
2023-02-06T19:17:45.331Z,96609.84
2023-02-06T19:20:15.273Z,96611.25
2023-02-06T19:22:43.407Z,96520.50
2023-02-06T19:25:14.433Z,96536.06
2023-02-06T19:27:42.996Z,96603.91
2023-02-06T19:30:13.060Z,96592.25
2023-02-06T19:32:41.246Z,96629.84
2023-02-06T19:35:09.425Z,96610.16
2023-02-06T19:37:38.706Z,96622.28
2023-02-06T19:40:07.757Z,96617.59
2023-02-06T19:42:35.924Z,96615.38
2023-02-06T19:45:05.121Z,96571.72
2023-02-06T19:47:33.105Z,96614.44
2023-02-06T19:50:01.089Z,96590.13
2023-02-06T19:52:29.117Z,96599.41
2023-02-06T19:54:58.742Z,96395.31
2023-02-06T19:57:26.882Z,96619.16
2023-02-06T19:59:56.946Z,96570.13
2023-02-06T20:02:24.855Z,96614.91
2023-02-06T20:04:53.041Z,96614.84
2023-02-06T20:07:21.655Z,96610.75
2023-02-06T20:09:51.149Z,96613.03
2023-02-06T20:12:20.440Z,96611.63
2023-02-06T20:14:48.552Z,96618.94
2023-02-06T20:17:18.185Z,96610.00
2023-02-06T20:19:46.084Z,96625.00
2023-02-06T20:22:15.076Z,96598.16
2023-02-06T20:24:43.190Z,96617.09
2023-02-06T20:27:12.799Z,96530.88
2023-02-06T20:29:43.733Z,96606.81
2023-02-06T20:32:12.086Z,96620.31
2023-02-06T20:34:40.100Z,96624.34
2023-02-06T20:37:09.481Z,96625.34
2023-02-06T20:39:38.147Z,96623.41
2023-02-06T20:42:06.106Z,96543.78
2023-02-06T20:44:34.031Z,96624.19
2023-02-06T20:47:03.666Z,96625.00
2023-02-06T20:49:32.254Z,96621.78
2023-02-06T20:52:00.319Z,96628.28
2023-02-06T20:54:28.375Z,96602.81
2023-02-06T20:56:56.269Z,96625.88
2023-02-06T20:59:24.866Z,96631.97
2023-02-06T21:01:52.952Z,96631.16
2023-02-06T21:04:22.342Z,96591.97
2023-02-06T21:06:50.307Z,96630.91
2023-02-06T21:09:19.029Z,96623.41
2023-02-06T21:11:49.076Z,96604.28
2023-02-06T21:14:17.388Z,96619.41
2023-02-06T21:16:45.440Z,96614.16
2023-02-06T21:19:16.128Z,96570.91
2023-02-06T21:21:46.560Z,96615.75
2023-02-06T21:24:18.027Z,96620.84
2023-02-06T21:26:45.920Z,96629.97
2023-02-06T21:29:14.900Z,96611.06
2023-02-06T21:31:44.197Z,96610.59
2023-02-06T21:34:15.623Z,96615.59
2023-02-06T21:36:45.945Z,96623.16
2023-02-06T21:39:18.792Z,96623.97
2023-02-06T21:41:47.782Z,96625.38
2023-02-06T21:44:15.710Z,96612.84
2023-02-06T21:46:43.612Z,96622.72
2023-02-06T21:49:11.768Z,96617.50
2023-02-06T21:51:40.382Z,96631.88
2023-02-06T21:54:10.259Z,96635.75
2023-02-06T21:56:39.221Z,96610.50
2023-02-06T21:59:08.052Z,96644.88
2023-02-06T22:01:38.261Z,96635.47
2023-02-06T22:04:06.302Z,96623.34
2023-02-06T22:06:37.027Z,96623.97
2023-02-06T22:09:07.811Z,96624.00
2023-02-06T22:11:38.828Z,96660.66
2023-02-06T22:14:09.093Z,96613.06
2023-02-06T22:16:37.316Z,96654.13
2023-02-06T22:19:06.228Z,96652.28
2023-02-06T22:21:35.914Z,96656.75
2023-02-06T22:24:06.690Z,96660.03
2023-02-06T22:26:38.459Z,96659.59
2023-02-06T22:29:08.807Z,96641.44
2023-02-06T22:31:38.388Z,96643.28
2023-02-06T22:34:06.325Z,96656.38
2023-02-06T22:36:34.763Z,96609.44
2023-02-06T22:39:06.548Z,96663.78
2023-02-06T22:41:35.521Z,96646.19
2023-02-06T22:44:03.491Z,96644.56
2023-02-06T22:46:35.201Z,96599.06
2023-02-06T22:49:03.533Z,96631.38
2023-02-06T22:51:31.461Z,96655.47
2023-02-06T22:54:00.642Z,96647.44
2023-02-06T22:56:31.723Z,96665.97
2023-02-06T22:59:01.767Z,96654.56
2023-02-06T23:01:33.248Z,96643.28
2023-02-06T23:04:02.717Z,96657.00
2023-02-06T23:06:32.202Z,96640.47
2023-02-06T23:09:01.602Z,96662.94
2023-02-06T23:11:31.535Z,96658.06
2023-02-06T23:14:01.593Z,96666.19
2023-02-06T23:16:31.689Z,96640.09
2023-02-06T23:19:01.985Z,96662.13
2023-02-06T23:21:29.904Z,96646.75
2023-02-06T23:23:59.665Z,96656.66
2023-02-06T23:26:28.169Z,96667.16
2023-02-06T23:28:57.646Z,96656.66
2023-02-06T23:31:25.945Z,96665.97
2023-02-06T23:33:54.234Z,96654.84
2023-02-06T23:36:26.783Z,96662.28
2023-02-06T23:38:55.356Z,96574.16
2023-02-06T23:41:26.689Z,96665.28
2023-02-06T23:43:56.474Z,96672.72
2023-02-06T23:46:24.850Z,96668.84
2023-02-06T23:48:53.438Z,96635.66
2023-02-06T23:51:24.169Z,96565.94
2023-02-06T23:53:52.668Z,96655.31
2023-02-06T23:56:23.981Z,96670.91
2023-02-06T23:58:52.893Z,96657.31
